createdAt,value
2023-03-13T00:01:21.547Z,97972.91
2023-03-13T00:03:27.199Z,97975.16
2023-03-13T00:05:38.086Z,97973.31
2023-03-13T00:07:43.017Z,97963.09
2023-03-13T00:09:47.913Z,97968.88
2023-03-13T00:11:53.099Z,97960.97
2023-03-13T00:13:58.802Z,97961.75
2023-03-13T00:16:05.437Z,97959.09
2023-03-13T00:18:10.344Z,97955.72
2023-03-13T00:20:17.530Z,97946.25
2023-03-13T00:22:25.408Z,97947.72
2023-03-13T00:24:30.562Z,97951.84
2023-03-13T00:26:35.658Z,97953.47
2023-03-13T00:28:43.789Z,97953.91
2023-03-13T00:30:50.756Z,97946.19
2023-03-13T00:32:55.832Z,97941.81
2023-03-13T00:35:01.062Z,97939.34
2023-03-13T00:37:06.005Z,97938.38
2023-03-13T00:39:13.538Z,97939.16
2023-03-13T00:41:22.072Z,97932.16
2023-03-13T00:43:27.541Z,97926.22
2023-03-13T00:45:32.928Z,97921.22
2023-03-13T00:47:37.821Z,97915.16
2023-03-13T00:49:42.756Z,97911.72
2023-03-13T00:51:47.909Z,97915.09
2023-03-13T00:53:52.937Z,97920.03
2023-03-13T00:56:03.913Z,97927.41
2023-03-13T00:58:08.847Z,97923.28
2023-03-13T01:00:16.239Z,97926.66
2023-03-13T01:02:21.317Z,97921.75
2023-03-13T01:04:26.328Z,97921.91
2023-03-13T01:06:35.168Z,97921.75
2023-03-13T01:08:40.727Z,97920.03
2023-03-13T01:10:45.865Z,97908.16
2023-03-13T01:12:53.660Z,97907.38
2023-03-13T01:14:58.767Z,97898.19
2023-03-13T01:17:03.950Z,97899.66
2023-03-13T01:19:13.434Z,97893.09
2023-03-13T01:21:21.440Z,97889.63
2023-03-13T01:23:26.662Z,97879.59
2023-03-13T01:25:31.555Z,97867.91
2023-03-13T01:27:39.559Z,97860.28
2023-03-13T01:29:47.138Z,97864.28
2023-03-13T01:31:52.469Z,97851.94
2023-03-13T01:33:59.886Z,97839.06
2023-03-13T01:36:05.593Z,97845.53
2023-03-13T01:38:11.250Z,97841.94
2023-03-13T01:40:16.646Z,97836.59
2023-03-13T01:42:21.559Z,97832.25
2023-03-13T01:44:29.163Z,97829.66
2023-03-13T01:46:37.679Z,97813.75
2023-03-13T01:48:55.080Z,97820.47
2023-03-13T01:51:05.953Z,97805.56
2023-03-13T01:53:10.893Z,97801.38
2023-03-13T01:55:19.896Z,97789.53
2023-03-13T01:57:32.896Z,97793.94
2023-03-13T01:59:43.198Z,97790.56
2023-03-13T02:01:55.200Z,97788.09
2023-03-13T02:04:00.972Z,97786.84
2023-03-13T02:06:07.858Z,97784.28
2023-03-13T02:08:20.585Z,97772.47
2023-03-13T02:10:27.949Z,97765.00
2023-03-13T02:12:38.662Z,97768.16
2023-03-13T02:14:48.005Z,97760.09
2023-03-13T02:16:58.264Z,97764.75
2023-03-13T02:19:05.337Z,97756.50
2023-03-13T02:21:34.814Z,97748.41
2023-03-13T02:23:51.673Z,97761.84
2023-03-13T02:25:59.944Z,97755.06
2023-03-13T02:28:16.489Z,97751.69
2023-03-13T02:30:21.919Z,97750.69
2023-03-13T02:32:28.213Z,97741.69
2023-03-13T02:34:38.284Z,97742.25
2023-03-13T02:36:44.549Z,97749.69
2023-03-13T02:38:58.055Z,97745.50
2023-03-13T02:41:08.790Z,97739.09
2023-03-13T02:43:20.113Z,97744.94
2023-03-13T02:45:25.881Z,97743.50
2023-03-13T02:47:31.029Z,97742.00
2023-03-13T02:49:36.713Z,97737.44
2023-03-13T02:51:46.729Z,97743.97
2023-03-13T02:53:56.739Z,97740.50
2023-03-13T02:56:02.145Z,97735.56
2023-03-13T02:58:11.248Z,97723.53
2023-03-13T03:00:17.770Z,97725.94
2023-03-13T03:02:23.636Z,97716.88
2023-03-13T03:04:29.854Z,97709.16
2023-03-13T03:06:35.283Z,97706.06
2023-03-13T03:08:44.215Z,97700.94
2023-03-13T03:10:50.664Z,97694.38
2023-03-13T03:12:55.924Z,97697.47
2023-03-13T03:15:05.234Z,97679.66
2023-03-13T03:17:13.002Z,97693.25
2023-03-13T03:19:18.779Z,97688.47
2023-03-13T03:21:23.976Z,97688.47
2023-03-13T03:23:30.112Z,97697.16
2023-03-13T03:25:35.473Z,97693.88
2023-03-13T03:27:40.796Z,97687.09
2023-03-13T03:29:46.965Z,97682.16
2023-03-13T03:31:54.512Z,97677.16
2023-03-13T03:34:00.481Z,97672.66
2023-03-13T03:36:10.153Z,97673.63
2023-03-13T03:38:15.154Z,97658.91
2023-03-13T03:40:21.664Z,97656.63
2023-03-13T03:42:27.151Z,97654.97
2023-03-13T03:44:33.285Z,97653.47
2023-03-13T03:46:38.951Z,97646.06
2023-03-13T03:48:47.004Z,97642.97
2023-03-13T03:50:52.650Z,97633.09
2023-03-13T03:52:58.869Z,97626.44
2023-03-13T03:55:04.837Z,97625.78
2023-03-13T03:57:10.132Z,97617.53
2023-03-13T03:59:16.166Z,97621.03
2023-03-13T04:01:34.689Z,97611.56
2023-03-13T04:03:41.462Z,97612.59
2023-03-13T04:05:50.212Z,97608.31
2023-03-13T04:07:55.249Z,97597.66
2023-03-13T04:10:00.340Z,97604.31
2023-03-13T04:12:13.086Z,97606.00
2023-03-13T04:14:21.576Z,97599.31
2023-03-13T04:16:27.178Z,97599.31
2023-03-13T04:18:33.524Z,97597.66
2023-03-13T04:20:39.576Z,97591.00
2023-03-13T04:22:47.436Z,97590.13
2023-03-13T04:24:54.291Z,97592.66
2023-03-13T04:27:02.862Z,97588.53
2023-03-13T04:29:08.964Z,97595.28
2023-03-13T04:31:32.976Z,97592.00
2023-03-13T04:33:38.030Z,97586.00
2023-03-13T04:35:58.722Z,97577.81
2023-03-13T04:38:24.253Z,97586.03
2023-03-13T04:40:44.259Z,97572.81
2023-03-13T04:43:00.946Z,97574.44
2023-03-13T04:45:29.539Z,97560.25
2023-03-13T04:47:58.048Z,97559.50
2023-03-13T04:50:05.642Z,97560.25
2023-03-13T04:52:40.068Z,97551.81
2023-03-13T04:55:13.779Z,97540.81
2023-03-13T04:57:22.087Z,97539.19
2023-03-13T04:59:41.343Z,97529.97
2023-03-13T05:01:47.406Z,97529.16
2023-03-13T05:04:13.602Z,97532.56
2023-03-13T05:06:35.916Z,97539.19
2023-03-13T05:08:52.020Z,97540.81
2023-03-13T05:11:09.184Z,97529.09
2023-03-13T05:13:32.757Z,97533.88
2023-03-13T05:16:00.836Z,97538.94
2023-03-13T05:18:15.565Z,97522.22
2023-03-13T05:20:39.429Z,97513.88
2023-03-13T05:22:47.450Z,97505.47
2023-03-13T05:24:52.372Z,97522.16
2023-03-13T05:27:32.507Z,97518.50
2023-03-13T05:29:49.513Z,97515.25
2023-03-13T05:32:14.304Z,97508.84
2023-03-13T05:34:51.333Z,97501.00
2023-03-13T05:37:02.601Z,97499.19
2023-03-13T05:39:23.415Z,97500.13
2023-03-13T05:41:50.882Z,97479.84
2023-03-13T05:44:08.356Z,97478.25
2023-03-13T05:46:31.092Z,97481.38
2023-03-13T05:48:59.343Z,97482.91
2023-03-13T05:51:24.552Z,97473.22
2023-03-13T05:53:37.697Z,97475.47
2023-03-13T05:56:06.063Z,97480.25
2023-03-13T05:58:29.114Z,97487.31
2023-03-13T06:00:52.597Z,97487.19
2023-03-13T06:03:22.125Z,97496.28
2023-03-13T06:05:30.073Z,97487.88
2023-03-13T06:07:35.835Z,97481.97
2023-03-13T06:09:41.796Z,97479.47
2023-03-13T06:11:47.538Z,97476.72
2023-03-13T06:13:54.891Z,97474.09
2023-03-13T06:16:22.771Z,97464.81
2023-03-13T06:18:29.071Z,97463.84
2023-03-13T06:20:34.344Z,97460.47
2023-03-13T06:22:39.300Z,97461.84
2023-03-13T06:24:45.368Z,97470.25
2023-03-13T06:26:51.645Z,97471.75
2023-03-13T06:28:56.877Z,97469.09
2023-03-13T06:31:05.365Z,97452.22
2023-03-13T06:33:13.094Z,97440.31
2023-03-13T06:35:18.799Z,97432.91
2023-03-13T06:37:23.769Z,97422.72
2023-03-13T06:39:29.763Z,97412.53
2023-03-13T06:41:34.776Z,97415.53
2023-03-13T06:43:42.242Z,97421.13
2023-03-13T06:45:47.631Z,97437.03
2023-03-13T06:47:53.005Z,97429.22
2023-03-13T06:50:01.054Z,97433.59
2023-03-13T06:52:06.058Z,97423.25
2023-03-13T06:54:11.039Z,97417.19
2023-03-13T06:56:17.183Z,97422.97
2023-03-13T06:58:32.095Z,97434.50
2023-03-13T07:00:40.018Z,97433.63
2023-03-13T07:02:44.939Z,97442.81
2023-03-13T07:04:50.079Z,97439.09
2023-03-13T07:06:58.107Z,97444.00
2023-03-13T07:09:03.069Z,97450.81
2023-03-13T07:11:11.591Z,97442.91
2023-03-13T07:13:16.524Z,97447.19
2023-03-13T07:15:21.773Z,97459.50
2023-03-13T07:17:27.051Z,97458.69
2023-03-13T07:19:32.026Z,97450.91
2023-03-13T07:21:37.660Z,97449.97
2023-03-13T07:23:45.244Z,97453.25
2023-03-13T07:25:57.657Z,97462.28
2023-03-13T07:28:03.136Z,97446.31
2023-03-13T07:30:10.340Z,97449.25
2023-03-13T07:32:15.838Z,97449.94
2023-03-13T07:34:20.834Z,97454.00
2023-03-13T07:36:26.655Z,97443.06
2023-03-13T07:38:31.690Z,97440.38
2023-03-13T07:40:39.455Z,97452.09
2023-03-13T07:42:45.236Z,97458.00
2023-03-13T07:44:50.136Z,97462.00
2023-03-13T07:46:55.323Z,97452.75
2023-03-13T07:49:00.256Z,97441.88
2023-03-13T07:51:06.391Z,97453.28
2023-03-13T07:53:14.180Z,97453.13
2023-03-13T07:55:20.050Z,97465.56
2023-03-13T07:57:27.548Z,97455.28
2023-03-13T07:59:32.897Z,97455.19
2023-03-13T08:01:38.331Z,97460.69
2023-03-13T08:03:44.250Z,97453.03
2023-03-13T08:05:49.436Z,97457.13
2023-03-13T08:07:54.481Z,97455.50
2023-03-13T08:09:59.385Z,97449.47
2023-03-13T08:12:05.301Z,97451.19
2023-03-13T08:14:13.096Z,97435.19
2023-03-13T08:16:20.556Z,97431.78
2023-03-13T08:18:26.269Z,97427.16
2023-03-13T08:20:31.191Z,97446.13
2023-03-13T08:22:37.160Z,97431.03
2023-03-13T08:24:42.314Z,97427.28
2023-03-13T08:26:47.372Z,97438.53
2023-03-13T08:28:57.113Z,97436.47
2023-03-13T08:31:11.336Z,97430.44
2023-03-13T08:33:16.307Z,97431.00
2023-03-13T08:35:21.360Z,97430.94
2023-03-13T08:37:26.635Z,97441.03
2023-03-13T08:39:31.509Z,97446.66
2023-03-13T08:41:40.767Z,97449.88
2023-03-13T08:43:46.532Z,97446.41
2023-03-13T08:45:57.870Z,97453.16
2023-03-13T08:48:05.533Z,97442.16
2023-03-13T08:50:12.080Z,97445.41
2023-03-13T08:52:17.158Z,97455.50
2023-03-13T08:54:22.049Z,97453.72
2023-03-13T08:56:30.714Z,97451.78
2023-03-13T08:58:36.276Z,97460.88
2023-03-13T09:00:41.183Z,97453.25
2023-03-13T09:02:46.278Z,97453.41
2023-03-13T09:04:53.974Z,97455.41
2023-03-13T09:06:59.199Z,97469.41
2023-03-13T09:09:05.499Z,97474.78
2023-03-13T09:11:13.425Z,97465.78
2023-03-13T09:13:18.317Z,97461.25
2023-03-13T09:15:23.411Z,97467.75
2023-03-13T09:17:28.830Z,97466.41
2023-03-13T09:19:33.821Z,97465.84
2023-03-13T09:21:41.449Z,97478.00
2023-03-13T09:23:47.432Z,97469.44
2023-03-13T09:25:54.891Z,97480.47
2023-03-13T09:27:59.837Z,97474.69
2023-03-13T09:30:04.864Z,97463.69
2023-03-13T09:32:10.576Z,97472.31
2023-03-13T09:34:15.664Z,97467.59
2023-03-13T09:36:23.023Z,97478.66
2023-03-13T09:38:30.686Z,97472.81
2023-03-13T09:40:48.623Z,97465.00
2023-03-13T09:43:02.377Z,97443.50
2023-03-13T09:45:15.349Z,97449.09
2023-03-13T09:47:27.705Z,97447.72
2023-03-13T09:49:36.882Z,97438.56
2023-03-13T09:51:44.403Z,97431.16
2023-03-13T09:53:57.324Z,97434.72
2023-03-13T09:56:03.017Z,97426.16
2023-03-13T09:58:16.648Z,97435.72
2023-03-13T10:00:27.399Z,97436.78
2023-03-13T10:02:35.793Z,97446.50
2023-03-13T10:04:47.190Z,97432.47
2023-03-13T10:06:52.384Z,97432.41
2023-03-13T10:09:01.529Z,97443.53
2023-03-13T10:11:14.338Z,97424.06
2023-03-13T10:13:30.832Z,97418.38
2023-03-13T10:15:45.584Z,97415.88
2023-03-13T10:17:51.088Z,97393.06
2023-03-13T10:20:06.913Z,97391.09
2023-03-13T10:22:18.766Z,97388.84
2023-03-13T10:24:35.968Z,97383.66
2023-03-13T10:26:41.125Z,97388.56
2023-03-13T10:28:46.704Z,97379.41
2023-03-13T10:30:55.976Z,97394.25
2023-03-13T10:33:21.525Z,97390.47
2023-03-13T10:35:28.758Z,97396.25
2023-03-13T10:37:42.990Z,97402.69
2023-03-13T10:39:51.241Z,97397.78
2023-03-13T10:42:02.128Z,97390.47
2023-03-13T10:44:10.415Z,97396.25
2023-03-13T10:46:28.615Z,97408.94
2023-03-13T10:48:39.993Z,97398.41
2023-03-13T10:50:48.510Z,97398.75
2023-03-13T10:52:55.438Z,97395.78
2023-03-13T10:55:08.597Z,97401.28
2023-03-13T10:57:33.118Z,97404.53
2023-03-13T10:59:46.249Z,97392.97
2023-03-13T11:01:52.853Z,97398.03
2023-03-13T11:04:00.734Z,97385.03
2023-03-13T11:06:07.035Z,97399.13
2023-03-13T11:08:31.485Z,97389.75
2023-03-13T11:10:39.154Z,97385.78
2023-03-13T11:12:48.861Z,97379.63
2023-03-13T11:15:01.039Z,97383.88
2023-03-13T11:17:14.602Z,97392.91
2023-03-13T11:19:44.032Z,97406.56
2023-03-13T11:22:02.056Z,97383.16
2023-03-13T11:24:14.747Z,97379.31
2023-03-13T11:26:31.460Z,97377.38
2023-03-13T11:28:53.337Z,97379.13
2023-03-13T11:31:11.129Z,97368.13
2023-03-13T11:33:29.023Z,97372.34
2023-03-13T11:35:43.267Z,97372.72
2023-03-13T11:37:48.296Z,97359.72
2023-03-13T11:40:02.327Z,97369.41
2023-03-13T11:42:35.503Z,97356.88
2023-03-13T11:44:53.485Z,97350.78
2023-03-13T11:47:19.260Z,97351.94
2023-03-13T11:49:54.337Z,97340.75
2023-03-13T11:52:22.510Z,97336.41
2023-03-13T11:54:56.341Z,97345.81
2023-03-13T11:57:07.843Z,97345.38
2023-03-13T11:59:43.132Z,97340.94
2023-03-13T12:01:57.742Z,97351.41
2023-03-13T12:04:08.713Z,97349.63
2023-03-13T12:06:28.918Z,97338.28
2023-03-13T12:08:39.595Z,97341.69
2023-03-13T12:10:49.924Z,97343.13
2023-03-13T12:13:02.578Z,97330.75
2023-03-13T12:15:25.345Z,97327.13
2023-03-13T12:17:38.042Z,97329.13
2023-03-13T12:19:52.132Z,97335.81
2023-03-13T12:22:04.167Z,97327.59
2023-03-13T12:24:17.659Z,97315.84
2023-03-13T12:26:25.081Z,97310.56
2023-03-13T12:28:38.016Z,97300.91
2023-03-13T12:30:50.691Z,97296.06
2023-03-13T12:33:05.050Z,97292.06
2023-03-13T12:35:22.792Z,97286.78
2023-03-13T12:37:39.792Z,97280.91
2023-03-13T12:39:52.699Z,97284.59
2023-03-13T12:42:13.431Z,97274.28
2023-03-13T12:44:21.853Z,97271.22
2023-03-13T12:46:47.920Z,97269.41
2023-03-13T12:49:23.249Z,97268.38
2023-03-13T12:51:48.009Z,97261.19
2023-03-13T12:54:37.880Z,97259.28
2023-03-13T12:56:58.137Z,97260.50
2023-03-13T12:59:07.126Z,97255.59
2023-03-13T13:01:22.634Z,97256.84
2023-03-13T13:03:36.954Z,97256.84
2023-03-13T13:05:42.107Z,97237.91
2023-03-13T13:07:56.780Z,97250.75
2023-03-13T13:10:20.145Z,97234.75
2023-03-13T13:12:26.459Z,97236.09
2023-03-13T13:15:15.148Z,97225.88
2023-03-13T13:17:27.350Z,97214.72
2023-03-13T13:19:50.677Z,97225.97
2023-03-13T13:22:40.871Z,97212.09
2023-03-13T13:24:54.040Z,97202.97
2023-03-13T13:26:58.974Z,97207.34
2023-03-13T13:29:25.573Z,97200.25
2023-03-13T13:32:03.080Z,97193.84
2023-03-13T13:34:08.565Z,97179.91
2023-03-13T13:36:44.495Z,97182.94
2023-03-13T13:38:50.638Z,97177.66
2023-03-13T13:41:05.232Z,97163.16
2023-03-13T13:43:26.031Z,97160.81
2023-03-13T13:45:34.598Z,97171.63
2023-03-13T13:47:39.571Z,97160.47
2023-03-13T13:50:00.351Z,97153.41
2023-03-13T13:52:35.794Z,97149.63
2023-03-13T13:54:58.691Z,97144.88
2023-03-13T13:57:05.758Z,97147.78
2023-03-13T13:59:37.379Z,97139.41
2023-03-13T14:01:45.333Z,97135.91
2023-03-13T14:03:53.416Z,97135.00
2023-03-13T14:06:04.614Z,97137.88
2023-03-13T14:08:23.520Z,97127.31
2023-03-13T14:10:40.248Z,97122.81
2023-03-13T14:12:51.307Z,97112.00
2023-03-13T14:15:18.286Z,97100.66
2023-03-13T14:17:25.558Z,97094.03
2023-03-13T14:19:33.254Z,97080.84
2023-03-13T14:21:38.725Z,97070.63
2023-03-13T14:23:49.326Z,97063.13
2023-03-13T14:25:56.671Z,97066.47
2023-03-13T14:28:03.191Z,97054.41
2023-03-13T14:30:12.014Z,97043.09
2023-03-13T14:32:21.567Z,97044.66
2023-03-13T14:34:28.977Z,97045.63
2023-03-13T14:36:50.703Z,97054.88
2023-03-13T14:39:01.313Z,97052.19
2023-03-13T14:41:08.150Z,97051.28
2023-03-13T14:43:28.810Z,97030.19
2023-03-13T14:45:37.795Z,97028.09
2023-03-13T14:47:43.197Z,97028.22
2023-03-13T14:49:49.546Z,97015.47
2023-03-13T14:52:04.236Z,97005.50
2023-03-13T14:54:32.779Z,96993.78
2023-03-13T14:56:42.335Z,96998.88
2023-03-13T14:58:48.674Z,96995.34
2023-03-13T15:00:53.906Z,96989.53
2023-03-13T15:03:27.566Z,96971.28
2023-03-13T15:05:36.961Z,96959.13
2023-03-13T15:07:45.029Z,96966.19
2023-03-13T15:09:54.236Z,96943.91
2023-03-13T15:12:01.802Z,96932.94
2023-03-13T15:14:06.897Z,96915.19
2023-03-13T15:16:20.238Z,96905.81
2023-03-13T15:18:29.439Z,96910.63
2023-03-13T15:20:34.378Z,96901.91
2023-03-13T15:22:42.679Z,96889.75
2023-03-13T15:25:03.253Z,96894.63
2023-03-13T15:27:20.045Z,96889.13
2023-03-13T15:29:24.996Z,96889.81
2023-03-13T15:31:31.969Z,96884.06
2023-03-13T15:33:38.125Z,96887.88
2023-03-13T15:35:43.248Z,96892.84
2023-03-13T15:37:48.894Z,96888.00
2023-03-13T15:39:53.988Z,96882.56
2023-03-13T15:41:59.340Z,96879.22
2023-03-13T15:44:07.305Z,96879.47
2023-03-13T15:46:16.169Z,96886.16
2023-03-13T15:48:24.930Z,96879.25
2023-03-13T15:50:30.964Z,96878.06
2023-03-13T15:52:38.237Z,96902.69
2023-03-13T15:54:43.452Z,96970.56
2023-03-13T15:56:50.442Z,97051.19
2023-03-13T15:58:55.939Z,96983.16
2023-03-13T16:01:03.795Z,96976.28
2023-03-13T16:03:09.197Z,96967.00
2023-03-13T16:05:14.337Z,96936.94
2023-03-13T16:07:22.544Z,96923.25
2023-03-13T16:09:28.059Z,96920.38
2023-03-13T16:11:33.172Z,96932.47
2023-03-13T16:13:38.440Z,96924.72
2023-03-13T16:15:43.405Z,96937.13
2023-03-13T16:17:51.242Z,96932.91
2023-03-13T16:19:56.776Z,96927.78
2023-03-13T16:22:01.726Z,96909.78
2023-03-13T16:24:07.724Z,96905.38
2023-03-13T16:29:13.015Z,96915.31
2023-03-13T16:31:23.867Z,96891.16
2023-03-13T16:33:31.410Z,96907.00
2023-03-13T16:35:37.211Z,96918.00
2023-03-13T16:37:42.268Z,96920.59
2023-03-13T16:39:48.473Z,96893.13
2023-03-13T16:41:53.563Z,96890.09
2023-03-13T16:43:59.827Z,96930.00
2023-03-13T16:46:06.740Z,96930.19
2023-03-13T16:48:21.793Z,96946.13
2023-03-13T16:50:35.190Z,96944.50
2023-03-13T16:52:40.252Z,96914.34
2023-03-13T16:54:46.404Z,96922.09
2023-03-13T16:56:51.325Z,96902.09
2023-03-13T16:58:57.332Z,96898.16
2023-03-13T17:01:05.936Z,96895.03
2023-03-13T17:03:11.310Z,96900.22
2023-03-13T17:05:17.778Z,96895.47
2023-03-13T17:07:29.524Z,96861.00
2023-03-13T17:09:34.743Z,96846.97
2023-03-13T17:11:39.755Z,96850.59
2023-03-13T17:13:46.787Z,96840.69
2023-03-13T17:15:52.067Z,96844.28
2023-03-13T17:17:57.688Z,96848.09
2023-03-13T17:20:05.929Z,96844.13
2023-03-13T17:22:14.326Z,96849.34
2023-03-13T17:24:21.790Z,96842.31
2023-03-13T17:26:29.222Z,96845.56
2023-03-13T17:28:34.122Z,96831.63
2023-03-13T17:30:39.175Z,96850.81
2023-03-13T17:32:44.086Z,96855.03
2023-03-13T17:34:49.489Z,96879.41
2023-03-13T17:36:54.363Z,96876.97
2023-03-13T17:39:03.163Z,96886.06
2023-03-13T17:41:14.518Z,96877.78
2023-03-13T17:43:19.426Z,96877.78
2023-03-13T17:45:25.006Z,96877.97
2023-03-13T17:47:30.557Z,96875.44
2023-03-13T17:49:35.421Z,96875.53
2023-03-13T17:51:41.802Z,96852.06
2023-03-13T17:53:46.968Z,96854.91
2023-03-13T17:55:52.017Z,96855.09
2023-03-13T17:57:59.496Z,96850.69
2023-03-13T18:00:07.085Z,96847.38
2023-03-13T18:02:19.314Z,96836.41
2023-03-13T18:04:24.187Z,96829.59
2023-03-13T18:06:31.937Z,96833.53
2023-03-13T18:08:36.817Z,96818.97
2023-03-13T18:10:41.696Z,96823.81
2023-03-13T18:12:46.724Z,96827.22
2023-03-13T18:14:54.462Z,96822.91
2023-03-13T18:16:59.593Z,96837.13
2023-03-13T18:19:04.464Z,96825.63
2023-03-13T18:21:09.980Z,96810.50
2023-03-13T18:23:14.850Z,96800.88
2023-03-13T18:25:20.615Z,96798.47
2023-03-13T18:27:26.007Z,96791.59
2023-03-13T18:29:30.870Z,96784.59
2023-03-13T18:31:42.694Z,96785.31
2023-03-13T18:33:48.030Z,96768.75
2023-03-13T18:35:53.495Z,96776.50
2023-03-13T18:37:59.692Z,96768.25
2023-03-13T18:40:07.384Z,96767.59
2023-03-13T18:42:14.956Z,96761.94
2023-03-13T18:44:21.825Z,96761.94
2023-03-13T18:46:31.671Z,96756.19
2023-03-13T18:48:39.500Z,96753.66
2023-03-13T18:50:44.581Z,96735.13
2023-03-13T18:52:49.601Z,96730.09
2023-03-13T18:54:54.764Z,96735.06
2023-03-13T18:57:01.053Z,96730.84
2023-03-13T18:59:07.294Z,96730.09
2023-03-13T19:01:16.965Z,96734.31
2023-03-13T19:03:22.666Z,96731.94
2023-03-13T19:05:30.208Z,96735.13
2023-03-13T19:07:35.710Z,96726.88
2023-03-13T19:09:44.068Z,96735.13
2023-03-13T19:11:51.694Z,96745.41
2023-03-13T19:14:00.102Z,96749.53
2023-03-13T19:16:05.194Z,96761.41
2023-03-13T19:18:14.358Z,96761.31
2023-03-13T19:20:23.936Z,96767.97
2023-03-13T19:22:31.761Z,96778.69
2023-03-13T19:24:36.634Z,96797.44
2023-03-13T19:26:44.825Z,96788.44
2023-03-13T19:28:49.840Z,96809.22
2023-03-13T19:30:55.310Z,96822.69
2023-03-13T19:33:00.246Z,96832.44
2023-03-13T19:35:05.208Z,96836.38
2023-03-13T19:37:14.297Z,96826.94
2023-03-13T19:39:25.130Z,96823.63
2023-03-13T19:41:30.546Z,96810.22
2023-03-13T19:43:35.532Z,96792.59
2023-03-13T19:45:40.468Z,96819.56
2023-03-13T19:47:45.872Z,96816.22
2023-03-13T19:49:52.521Z,96816.97
2023-03-13T19:51:57.841Z,96821.28
2023-03-13T19:54:02.707Z,96816.44
2023-03-13T19:56:19.898Z,96818.94
2023-03-13T19:58:25.012Z,96817.31
2023-03-13T20:00:30.102Z,96830.09
2023-03-13T20:02:35.256Z,96834.94
2023-03-13T20:04:42.208Z,96846.47
2023-03-13T20:06:47.608Z,96849.72
2023-03-13T20:08:56.159Z,96849.72
2023-03-13T20:11:01.054Z,96825.34
2023-03-13T20:13:08.541Z,96827.94
2023-03-13T20:15:14.883Z,96825.34
2023-03-13T20:17:19.825Z,96841.97
2023-03-13T20:19:29.171Z,96826.84
2023-03-13T20:21:37.392Z,96816.06
2023-03-13T20:23:42.334Z,96784.38
2023-03-13T20:25:47.725Z,96772.53
2023-03-13T20:27:53.064Z,96770.91
2023-03-13T20:30:00.773Z,96770.91
2023-03-13T20:32:06.060Z,96745.00
2023-03-13T20:34:11.002Z,96732.41
2023-03-13T20:36:19.303Z,96709.03
2023-03-13T20:38:24.202Z,96657.16
2023-03-13T20:40:29.205Z,96636.56
2023-03-13T20:42:34.074Z,96606.72
2023-03-13T20:44:39.128Z,96597.38
2023-03-13T20:46:46.739Z,96582.44
2023-03-13T20:48:52.342Z,96592.94
2023-03-13T20:51:02.015Z,96612.72
2023-03-13T20:53:07.081Z,96616.31
2023-03-13T20:55:12.507Z,96600.69
2023-03-13T20:57:19.399Z,96602.88
2023-03-13T20:59:24.573Z,96621.97
2023-03-13T21:01:31.111Z,96627.34
2023-03-13T21:03:40.221Z,96641.59
2023-03-13T21:05:45.661Z,96646.78
2023-03-13T21:07:50.596Z,96661.25
2023-03-13T21:09:55.530Z,96652.34
2023-03-13T21:12:00.541Z,96647.31
2023-03-13T21:14:06.138Z,96647.69
2023-03-13T21:16:13.033Z,96650.53
2023-03-13T21:18:17.945Z,96657.53
2023-03-13T21:20:26.478Z,96644.53
2023-03-13T21:22:31.802Z,96632.91
2023-03-13T21:24:37.395Z,96637.25
2023-03-13T21:26:42.267Z,96613.88
2023-03-13T21:28:47.961Z,96599.19
2023-03-13T21:30:52.933Z,96599.19
2023-03-13T21:32:58.200Z,96602.97
2023-03-13T21:35:04.205Z,96610.28
2023-03-13T21:37:11.845Z,96615.72
2023-03-13T21:39:17.140Z,96621.09
2023-03-13T21:41:24.434Z,96618.41
2023-03-13T21:43:30.734Z,96611.06
2023-03-13T21:45:36.410Z,96603.50
2023-03-13T21:47:41.574Z,96622.19
2023-03-13T21:49:47.060Z,96611.47
2023-03-13T21:51:51.935Z,96607.66
2023-03-13T21:53:59.396Z,96609.97
2023-03-13T21:56:04.725Z,96615.25
2023-03-13T21:58:09.702Z,96620.75
2023-03-13T22:00:16.553Z,96625.78
2023-03-13T22:02:21.464Z,96629.19
2023-03-13T22:04:26.521Z,96632.25
2023-03-13T22:06:31.500Z,96639.31
2023-03-13T22:08:36.369Z,96640.47
2023-03-13T22:10:49.637Z,96644.69
2023-03-13T22:12:54.320Z,96650.19
2023-03-13T22:14:59.463Z,96653.59
2023-03-13T22:17:04.375Z,96663.66
2023-03-13T22:19:09.645Z,96667.06
2023-03-13T22:21:15.167Z,96681.63
2023-03-13T22:23:20.055Z,96688.09
2023-03-13T22:25:25.282Z,96687.00
2023-03-13T22:27:32.764Z,96682.50
2023-03-13T22:29:38.009Z,96685.03
2023-03-13T22:31:42.873Z,96689.16
2023-03-13T22:33:47.849Z,96686.09
2023-03-13T22:35:53.765Z,96669.56
2023-03-13T22:37:58.669Z,96669.75
2023-03-13T22:40:04.131Z,96678.19
2023-03-13T22:42:09.716Z,96673.53
2023-03-13T22:44:17.274Z,96660.41
2023-03-13T22:46:22.605Z,96662.72
2023-03-13T22:48:28.933Z,96643.41
2023-03-13T22:50:33.887Z,96643.84
2023-03-13T22:52:38.766Z,96639.22
2023-03-13T22:54:46.810Z,96644.97
2023-03-13T22:56:51.702Z,96642.56
2023-03-13T22:58:56.865Z,96641.41
2023-03-13T23:01:07.885Z,96641.75
2023-03-13T23:03:12.901Z,96645.47
2023-03-13T23:05:17.944Z,96650.34
2023-03-13T23:07:23.510Z,96644.91
2023-03-13T23:09:28.383Z,96635.03
2023-03-13T23:11:33.293Z,96635.22
2023-03-13T23:13:38.414Z,96624.44
2023-03-13T23:15:58.679Z,96625.34
2023-03-13T23:18:07.530Z,96623.56
2023-03-13T23:20:16.337Z,96618.53
2023-03-13T23:22:22.055Z,96621.22
2023-03-13T23:24:27.034Z,96626.78
2023-03-13T23:26:32.065Z,96626.59
2023-03-13T23:28:37.598Z,96624.41
2023-03-13T23:30:42.603Z,96615.47
2023-03-13T23:32:49.224Z,96611.88
2023-03-13T23:34:58.542Z,96593.13
2023-03-13T23:37:03.598Z,96591.84
2023-03-13T23:39:08.496Z,96577.31
2023-03-13T23:41:15.717Z,96589.97
2023-03-13T23:43:20.621Z,96602.09
2023-03-13T23:45:25.659Z,96619.41
2023-03-13T23:47:31.246Z,96647.44
2023-03-13T23:49:36.117Z,96648.72
2023-03-13T23:51:43.708Z,96647.75
2023-03-13T23:53:48.605Z,96657.59
2023-03-13T23:56:00.810Z,96653.84
2023-03-13T23:58:05.686Z,96678.88
